sensor_id;sensor_type;location;lat;lon;timestamp;temperature;humidity
50907;DHT22;36882;27.680;85.304;2022-09-02T00:01:54;24.40;99.90
50907;DHT22;36882;27.680;85.304;2022-09-02T00:04:26;24.40;99.90
50907;DHT22;36882;27.680;85.304;2022-09-02T00:06:56;24.40;99.90
50907;DHT22;36882;27.680;85.304;2022-09-02T00:09:27;24.40;99.90
50907;DHT22;36882;27.680;85.304;2022-09-02T00:11:58;24.40;99.90
50907;DHT22;36882;27.680;85.304;2022-09-02T00:14:34;24.40;99.90
50907;DHT22;36882;27.680;85.304;2022-09-02T00:17:05;24.40;99.90
50907;DHT22;36882;27.680;85.304;2022-09-02T00:19:36;24.40;99.90
50907;DHT22;36882;27.680;85.304;2022-09-02T00:22:06;24.40;99.90
50907;DHT22;36882;27.680;85.304;2022-09-02T00:24:37;24.50;99.90
50907;DHT22;36882;27.680;85.304;2022-09-02T00:27:09;24.40;99.90
50907;DHT22;36882;27.680;85.304;2022-09-02T00:29:40;24.50;99.90
50907;DHT22;36882;27.680;85.304;2022-09-02T00:32:10;24.50;99.90
50907;DHT22;36882;27.680;85.304;2022-09-02T00:34:40;24.50;99.90
50907;DHT22;36882;27.680;85.304;2022-09-02T00:37:11;24.50;99.90
50907;DHT22;36882;27.680;85.304;2022-09-02T00:39:41;24.50;99.90
50907;DHT22;36882;27.680;85.304;2022-09-02T00:42:12;24.40;99.90
50907;DHT22;36882;27.680;85.304;2022-09-02T00:44:45;24.40;99.90
50907;DHT22;36882;27.680;85.304;2022-09-02T00:47:16;24.50;99.90
50907;DHT22;36882;27.680;85.304;2022-09-02T00:49:50;24.50;99.90
50907;DHT22;36882;27.680;85.304;2022-09-02T00:52:28;24.50;99.90
50907;DHT22;36882;27.680;85.304;2022-09-02T00:55:04;24.50;99.90
50907;DHT22;36882;27.680;85.304;2022-09-02T00:57:40;24.60;99.90
50907;DHT22;36882;27.680;85.304;2022-09-02T01:00:22;24.60;99.90
50907;DHT22;36882;27.680;85.304;2022-09-02T01:03:06;24.60;99.90
50907;DHT22;36882;27.680;85.304;2022-09-02T01:05:39;24.70;99.90
50907;DHT22;36882;27.680;85.304;2022-09-02T01:08:20;24.70;99.70
50907;DHT22;36882;27.680;85.304;2022-09-02T01:10:54;24.70;99.70
50907;DHT22;36882;27.680;85.304;2022-09-02T01:13:27;24.70;99.70
50907;DHT22;36882;27.680;85.304;2022-09-02T01:16:12;24.80;99.80
50907;DHT22;36882;27.680;85.304;2022-09-02T01:18:48;24.70;99.80
50907;DHT22;36882;27.680;85.304;2022-09-02T01:21:19;24.70;99.80
50907;DHT22;36882;27.680;85.304;2022-09-02T01:23:51;24.80;99.90
50907;DHT22;36882;27.680;85.304;2022-09-02T01:26:22;24.80;99.90
50907;DHT22;36882;27.680;85.304;2022-09-02T01:28:53;24.80;99.90
50907;DHT22;36882;27.680;85.304;2022-09-02T01:31:23;24.70;99.90
50907;DHT22;36882;27.680;85.304;2022-09-02T01:33:53;24.80;99.90
50907;DHT22;36882;27.680;85.304;2022-09-02T01:36:24;24.80;99.90
50907;DHT22;36882;27.680;85.304;2022-09-02T01:38:57;24.80;99.90
50907;DHT22;36882;27.680;85.304;2022-09-02T01:41:27;24.80;99.80
50907;DHT22;36882;27.680;85.304;2022-09-02T01:43:57;24.80;99.80
50907;DHT22;36882;27.680;85.304;2022-09-02T01:46:28;24.80;99.80
50907;DHT22;36882;27.680;85.304;2022-09-02T01:48:58;24.90;99.80
50907;DHT22;36882;27.680;85.304;2022-09-02T01:51:29;24.80;99.70
50907;DHT22;36882;27.680;85.304;2022-09-02T02:12:39;25.00;99.50
50907;DHT22;36882;27.680;85.304;2022-09-02T02:22:52;25.10;99.20
50907;DHT22;36882;27.680;85.304;2022-09-02T02:25:22;25.10;99.10
50907;DHT22;36882;27.680;85.304;2022-09-02T02:27:53;25.10;99.10
50907;DHT22;36882;27.680;85.304;2022-09-02T02:30:24;25.30;99.00
50907;DHT22;36882;27.680;85.304;2022-09-02T02:32:54;25.20;99.10
50907;DHT22;36882;27.680;85.304;2022-09-02T02:35:24;25.30;99.10
50907;DHT22;36882;27.680;85.304;2022-09-02T02:49:28;25.60;99.00
50907;DHT22;36882;27.680;85.304;2022-09-02T02:51:58;25.60;98.80
50907;DHT22;36882;27.680;85.304;2022-09-02T02:54:29;25.70;98.70
50907;DHT22;36882;27.680;85.304;2022-09-02T03:27:50;25.80;99.00
50907;DHT22;36882;27.680;85.304;2022-09-02T03:30:24;25.70;99.50
50907;DHT22;36882;27.680;85.304;2022-09-02T03:32:56;25.70;99.40
50907;DHT22;36882;27.680;85.304;2022-09-02T03:54:36;25.70;98.60
50907;DHT22;36882;27.680;85.304;2022-09-02T04:00:56;25.30;98.20
50907;DHT22;36882;27.680;85.304;2022-09-02T04:03:27;25.00;98.90
50907;DHT22;36882;27.680;85.304;2022-09-02T04:05:58;25.00;99.40
50907;DHT22;36882;27.680;85.304;2022-09-02T04:08:28;24.90;99.60
50907;DHT22;36882;27.680;85.304;2022-09-02T04:11:03;24.70;99.90
50907;DHT22;36882;27.680;85.304;2022-09-02T04:13:34;24.70;99.90
50907;DHT22;36882;27.680;85.304;2022-09-02T04:36:15;24.40;99.90
50907;DHT22;36882;27.680;85.304;2022-09-02T04:38:46;24.20;99.90
50907;DHT22;36882;27.680;85.304;2022-09-02T05:04:05;25.10;97.80
50907;DHT22;36882;27.680;85.304;2022-09-02T05:06:38;25.20;97.00
50907;DHT22;36882;27.680;85.304;2022-09-02T05:20:37;25.70;96.80
50907;DHT22;36882;27.680;85.304;2022-09-02T05:23:09;25.70;97.70
50907;DHT22;36882;27.680;85.304;2022-09-02T05:25:41;25.90;96.90
50907;DHT22;36882;27.680;85.304;2022-09-02T05:28:12;26.00;96.80
50907;DHT22;36882;27.680;85.304;2022-09-02T05:30:43;26.00;97.30
50907;DHT22;36882;27.680;85.304;2022-09-02T05:33:13;26.20;96.30
50907;DHT22;36882;27.680;85.304;2022-09-02T05:35:44;26.10;95.60
50907;DHT22;36882;27.680;85.304;2022-09-02T05:38:16;25.90;96.50
50907;DHT22;36882;27.680;85.304;2022-09-02T06:23:10;27.10;94.90
50907;DHT22;36882;27.680;85.304;2022-09-02T06:25:46;27.20;94.20
50907;DHT22;36882;27.680;85.304;2022-09-02T06:28:17;27.20;94.60
50907;DHT22;36882;27.680;85.304;2022-09-02T06:30:56;27.30;94.50
50907;DHT22;36882;27.680;85.304;2022-09-02T06:33:27;27.40;94.80
50907;DHT22;36882;27.680;85.304;2022-09-02T06:35:57;27.50;94.40
50907;DHT22;36882;27.680;85.304;2022-09-02T07:43:21;28.60;91.10
50907;DHT22;36882;27.680;85.304;2022-09-02T07:45:57;28.60;90.50
50907;DHT22;36882;27.680;85.304;2022-09-02T07:48:30;28.50;90.50
50907;DHT22;36882;27.680;85.304;2022-09-02T07:51:01;28.50;90.10
50907;DHT22;36882;27.680;85.304;2022-09-02T07:53:32;28.40;90.10
50907;DHT22;36882;27.680;85.304;2022-09-02T07:56:03;28.50;91.40
50907;DHT22;36882;27.680;85.304;2022-09-02T07:58:34;28.50;90.60
50907;DHT22;36882;27.680;85.304;2022-09-02T08:01:04;28.70;90.50
50907;DHT22;36882;27.680;85.304;2022-09-02T08:03:36;28.90;90.70
50907;DHT22;36882;27.680;85.304;2022-09-02T08:06:08;28.90;89.90
50907;DHT22;36882;27.680;85.304;2022-09-02T08:08:39;29.00;90.70
50907;DHT22;36882;27.680;85.304;2022-09-02T08:11:09;29.00;90.60
50907;DHT22;36882;27.680;85.304;2022-09-02T08:13:41;29.20;90.80
50907;DHT22;36882;27.680;85.304;2022-09-02T08:16:11;29.20;88.50
50907;DHT22;36882;27.680;85.304;2022-09-02T08:18:42;29.30;88.90
50907;DHT22;36882;27.680;85.304;2022-09-02T08:21:13;29.20;90.20
50907;DHT22;36882;27.680;85.304;2022-09-02T08:23:43;29.20;90.40
50907;DHT22;36882;27.680;85.304;2022-09-02T08:26:17;29.20;90.80
50907;DHT22;36882;27.680;85.304;2022-09-02T08:28:47;29.30;89.10
50907;DHT22;36882;27.680;85.304;2022-09-02T08:31:19;29.20;90.60
50907;DHT22;36882;27.680;85.304;2022-09-02T08:33:50;29.20;90.10
50907;DHT22;36882;27.680;85.304;2022-09-02T08:36:21;28.90;89.30
50907;DHT22;36882;27.680;85.304;2022-09-02T08:38:51;29.00;91.10
50907;DHT22;36882;27.680;85.304;2022-09-02T08:41:26;29.00;90.20
50907;DHT22;36882;27.680;85.304;2022-09-02T08:44:00;28.90;90.50
50907;DHT22;36882;27.680;85.304;2022-09-02T08:46:32;28.90;90.30
50907;DHT22;36882;27.680;85.304;2022-09-02T08:49:10;28.80;91.10
50907;DHT22;36882;27.680;85.304;2022-09-02T08:51:52;28.90;90.70
50907;DHT22;36882;27.680;85.304;2022-09-02T08:57:15;28.60;90.60
50907;DHT22;36882;27.680;85.304;2022-09-02T08:59:46;28.30;91.30
50907;DHT22;36882;27.680;85.304;2022-09-02T09:05:53;28.20;91.80
50907;DHT22;36882;27.680;85.304;2022-09-02T09:20:02;28.30;93.10
50907;DHT22;36882;27.680;85.304;2022-09-02T09:22:37;28.20;93.70
50907;DHT22;36882;27.680;85.304;2022-09-02T09:25:11;28.20;94.20
50907;DHT22;36882;27.680;85.304;2022-09-02T09:27:43;28.20;92.90
50907;DHT22;36882;27.680;85.304;2022-09-02T09:30:14;28.30;93.10
50907;DHT22;36882;27.680;85.304;2022-09-02T09:32:50;28.50;93.00
50907;DHT22;36882;27.680;85.304;2022-09-02T09:35:24;28.50;92.20
50907;DHT22;36882;27.680;85.304;2022-09-02T09:37:56;28.50;92.00
50907;DHT22;36882;27.680;85.304;2022-09-02T09:40:29;28.50;92.80
50907;DHT22;36882;27.680;85.304;2022-09-02T09:43:14;28.60;93.10
50907;DHT22;36882;27.680;85.304;2022-09-02T09:45:47;28.70;93.50
50907;DHT22;36882;27.680;85.304;2022-09-02T09:48:24;28.80;93.50
50907;DHT22;36882;27.680;85.304;2022-09-02T09:51:10;28.70;93.40
50907;DHT22;36882;27.680;85.304;2022-09-02T09:53:41;28.40;93.00
50907;DHT22;36882;27.680;85.304;2022-09-02T09:56:24;28.20;93.60
50907;DHT22;36882;27.680;85.304;2022-09-02T09:58:55;28.20;93.40
50907;DHT22;36882;27.680;85.304;2022-09-02T10:01:31;28.20;93.20
50907;DHT22;36882;27.680;85.304;2022-09-02T10:04:09;28.10;93.30
50907;DHT22;36882;27.680;85.304;2022-09-02T10:07:00;28.00;93.30
50907;DHT22;36882;27.680;85.304;2022-09-02T10:09:33;28.10;93.50
50907;DHT22;36882;27.680;85.304;2022-09-02T10:12:06;28.00;93.10
50907;DHT22;36882;27.680;85.304;2022-09-02T10:14:42;27.80;93.50
50907;DHT22;36882;27.680;85.304;2022-09-02T10:17:50;27.80;93.70
50907;DHT22;36882;27.680;85.304;2022-09-02T10:20:31;27.60;93.20
50907;DHT22;36882;27.680;85.304;2022-09-02T10:23:40;27.30;93.90
50907;DHT22;36882;27.680;85.304;2022-09-02T10:29:26;27.50;94.00
50907;DHT22;36882;27.680;85.304;2022-09-02T10:32:27;27.60;93.70
50907;DHT22;36882;27.680;85.304;2022-09-02T10:35:23;27.70;93.90
50907;DHT22;36882;27.680;85.304;2022-09-02T10:41:21;27.80;93.40
50907;DHT22;36882;27.680;85.304;2022-09-02T10:47:14;27.90;92.90
50907;DHT22;36882;27.680;85.304;2022-09-02T10:50:12;27.90;93.20
50907;DHT22;36882;27.680;85.304;2022-09-02T10:53:10;28.00;93.40
50907;DHT22;36882;27.680;85.304;2022-09-02T10:56:05;28.00;92.90
50907;DHT22;36882;27.680;85.304;2022-09-02T10:59:07;28.00;93.20
50907;DHT22;36882;27.680;85.304;2022-09-02T11:04:53;27.90;92.90
50907;DHT22;36882;27.680;85.304;2022-09-02T11:07:33;27.90;93.40
50907;DHT22;36882;27.680;85.304;2022-09-02T11:10:07;27.80;93.60
50907;DHT22;36882;27.680;85.304;2022-09-02T11:18:52;27.60;93.60
50907;DHT22;36882;27.680;85.304;2022-09-02T11:21:49;27.60;93.50
50907;DHT22;36882;27.680;85.304;2022-09-02T11:24:42;27.60;93.80
50907;DHT22;36882;27.680;85.304;2022-09-02T11:27:39;27.70;93.70
50907;DHT22;36882;27.680;85.304;2022-09-02T11:30:15;27.60;93.20
50907;DHT22;36882;27.680;85.304;2022-09-02T11:33:09;27.50;93.30
50907;DHT22;36882;27.680;85.304;2022-09-02T11:35:43;27.40;93.60
50907;DHT22;36882;27.680;85.304;2022-09-02T11:38:32;27.30;93.80
50907;DHT22;36882;27.680;85.304;2022-09-02T11:53:29;26.70;94.00
50907;DHT22;36882;27.680;85.304;2022-09-02T11:58:50;26.60;94.80
50907;DHT22;36882;27.680;85.304;2022-09-02T12:01:37;26.60;94.40
50907;DHT22;36882;27.680;85.304;2022-09-02T12:04:21;26.60;94.30
50907;DHT22;36882;27.680;85.304;2022-09-02T12:07:22;26.60;94.40
50907;DHT22;36882;27.680;85.304;2022-09-02T12:10:00;26.50;94.70
50907;DHT22;36882;27.680;85.304;2022-09-02T12:15:37;26.50;94.50
50907;DHT22;36882;27.680;85.304;2022-09-02T12:18:12;26.60;94.50
50907;DHT22;36882;27.680;85.304;2022-09-02T12:21:04;26.50;93.90
50907;DHT22;36882;27.680;85.304;2022-09-02T12:24:04;26.40;94.30
50907;DHT22;36882;27.680;85.304;2022-09-02T12:27:03;26.30;94.60
50907;DHT22;36882;27.680;85.304;2022-09-02T12:29:35;26.30;94.60
50907;DHT22;36882;27.680;85.304;2022-09-02T12:32:08;26.30;94.50
50907;DHT22;36882;27.680;85.304;2022-09-02T12:34:52;26.30;95.00
50907;DHT22;36882;27.680;85.304;2022-09-02T12:40:40;26.30;94.80
50907;DHT22;36882;27.680;85.304;2022-09-02T12:43:47;26.30;95.30
50907;DHT22;36882;27.680;85.304;2022-09-02T12:46:43;26.30;95.40
50907;DHT22;36882;27.680;85.304;2022-09-02T12:49:32;26.30;95.10
50907;DHT22;36882;27.680;85.304;2022-09-02T12:52:10;26.30;95.10
50907;DHT22;36882;27.680;85.304;2022-09-02T12:54:44;26.30;95.10
50907;DHT22;36882;27.680;85.304;2022-09-02T12:57:18;26.20;95.10
50907;DHT22;36882;27.680;85.304;2022-09-02T12:59:58;26.20;95.20
50907;DHT22;36882;27.680;85.304;2022-09-02T13:03:40;26.20;95.20
50907;DHT22;36882;27.680;85.304;2022-09-02T13:06:00;26.20;95.40
50907;DHT22;36882;27.680;85.304;2022-09-02T13:08:50;26.10;95.60
50907;DHT22;36882;27.680;85.304;2022-09-02T13:15:09;26.10;95.60
50907;DHT22;36882;27.680;85.304;2022-09-02T13:21:03;26.00;95.80
50907;DHT22;36882;27.680;85.304;2022-09-02T13:23:53;26.00;96.00
50907;DHT22;36882;27.680;85.304;2022-09-02T13:32:26;25.90;96.00
50907;DHT22;36882;27.680;85.304;2022-09-02T13:35:03;25.90;96.10
50907;DHT22;36882;27.680;85.304;2022-09-02T13:37:37;25.90;96.10
50907;DHT22;36882;27.680;85.304;2022-09-02T13:40:23;26.00;96.00
50907;DHT22;36882;27.680;85.304;2022-09-02T13:42:56;25.90;96.00
50907;DHT22;36882;27.680;85.304;2022-09-02T13:45:29;25.80;96.20
50907;DHT22;36882;27.680;85.304;2022-09-02T13:48:10;25.80;96.30
50907;DHT22;36882;27.680;85.304;2022-09-02T13:50:46;25.80;96.40
50907;DHT22;36882;27.680;85.304;2022-09-02T13:53:38;25.80;96.50
50907;DHT22;36882;27.680;85.304;2022-09-02T13:56:29;25.90;96.40
50907;DHT22;36882;27.680;85.304;2022-09-02T13:58:59;25.90;96.40
50907;DHT22;36882;27.680;85.304;2022-09-02T14:01:33;25.90;96.50
50907;DHT22;36882;27.680;85.304;2022-09-02T14:04:10;25.90;96.50
50907;DHT22;36882;27.680;85.304;2022-09-02T14:06:44;25.90;96.40
50907;DHT22;36882;27.680;85.304;2022-09-02T14:09:31;25.90;96.50
50907;DHT22;36882;27.680;85.304;2022-09-02T14:12:04;25.90;96.50
50907;DHT22;36882;27.680;85.304;2022-09-02T14:14:35;25.90;96.50
50907;DHT22;36882;27.680;85.304;2022-09-02T14:17:23;25.90;96.40
50907;DHT22;36882;27.680;85.304;2022-09-02T14:20:20;26.00;96.30
50907;DHT22;36882;27.680;85.304;2022-09-02T14:22:54;25.90;96.20
50907;DHT22;36882;27.680;85.304;2022-09-02T14:25:26;26.00;96.50
50907;DHT22;36882;27.680;85.304;2022-09-02T14:27:59;26.00;96.40
50907;DHT22;36882;27.680;85.304;2022-09-02T14:30:38;26.00;96.60
50907;DHT22;36882;27.680;85.304;2022-09-02T14:33:36;26.00;96.20
50907;DHT22;36882;27.680;85.304;2022-09-02T14:39:16;26.00;96.20
50907;DHT22;36882;27.680;85.304;2022-09-02T14:41:50;26.00;96.20
50907;DHT22;36882;27.680;85.304;2022-09-02T14:44:27;26.00;96.20
50907;DHT22;36882;27.680;85.304;2022-09-02T14:47:04;26.00;96.00
50907;DHT22;36882;27.680;85.304;2022-09-02T14:49:44;25.90;96.10
50907;DHT22;36882;27.680;85.304;2022-09-02T14:52:24;25.90;96.20
50907;DHT22;36882;27.680;85.304;2022-09-02T14:54:56;25.80;96.40
50907;DHT22;36882;27.680;85.304;2022-09-02T14:57:31;25.80;96.40
50907;DHT22;36882;27.680;85.304;2022-09-02T15:00:06;25.80;96.30
50907;DHT22;36882;27.680;85.304;2022-09-02T15:02:41;25.80;96.50
50907;DHT22;36882;27.680;85.304;2022-09-02T15:05:12;25.80;96.70
50907;DHT22;36882;27.680;85.304;2022-09-02T15:07:43;25.80;96.50
50907;DHT22;36882;27.680;85.304;2022-09-02T15:10:15;25.80;96.70
50907;DHT22;36882;27.680;85.304;2022-09-02T15:12:49;25.80;96.80
50907;DHT22;36882;27.680;85.304;2022-09-02T15:15:20;25.70;96.90
50907;DHT22;36882;27.680;85.304;2022-09-02T15:17:51;25.70;96.80
50907;DHT22;36882;27.680;85.304;2022-09-02T15:20:22;25.80;96.80
50907;DHT22;36882;27.680;85.304;2022-09-02T15:22:55;25.70;96.80
50907;DHT22;36882;27.680;85.304;2022-09-02T15:25:26;25.70;96.90
50907;DHT22;36882;27.680;85.304;2022-09-02T15:27:57;25.70;97.00
50907;DHT22;36882;27.680;85.304;2022-09-02T15:30:28;25.70;96.70
50907;DHT22;36882;27.680;85.304;2022-09-02T15:33:02;25.70;96.60
50907;DHT22;36882;27.680;85.304;2022-09-02T15:35:33;25.70;96.70
50907;DHT22;36882;27.680;85.304;2022-09-02T15:38:07;25.70;96.40
50907;DHT22;36882;27.680;85.304;2022-09-02T15:40:37;25.70;96.50
50907;DHT22;36882;27.680;85.304;2022-09-02T15:43:08;25.60;96.60
50907;DHT22;36882;27.680;85.304;2022-09-02T15:45:44;25.70;96.80
50907;DHT22;36882;27.680;85.304;2022-09-02T15:48:17;25.70;96.80
50907;DHT22;36882;27.680;85.304;2022-09-02T15:50:47;25.70;96.60
50907;DHT22;36882;27.680;85.304;2022-09-02T15:53:21;25.70;96.80
50907;DHT22;36882;27.680;85.304;2022-09-02T15:55:51;25.70;96.70
50907;DHT22;36882;27.680;85.304;2022-09-02T15:58:21;25.70;96.50
50907;DHT22;36882;27.680;85.304;2022-09-02T16:00:51;25.70;96.50
50907;DHT22;36882;27.680;85.304;2022-09-02T16:03:25;25.60;96.60
50907;DHT22;36882;27.680;85.304;2022-09-02T16:06:01;25.60;96.60
50907;DHT22;36882;27.680;85.304;2022-09-02T16:08:33;25.60;96.70
50907;DHT22;36882;27.680;85.304;2022-09-02T16:11:06;25.60;96.90
50907;DHT22;36882;27.680;85.304;2022-09-02T16:13:37;25.60;96.90
50907;DHT22;36882;27.680;85.304;2022-09-02T16:16:10;25.60;97.10
50907;DHT22;36882;27.680;85.304;2022-09-02T16:18:42;25.60;97.20
50907;DHT22;36882;27.680;85.304;2022-09-02T16:21:12;25.60;97.20
50907;DHT22;36882;27.680;85.304;2022-09-02T16:23:43;25.70;97.20
50907;DHT22;36882;27.680;85.304;2022-09-02T16:26:29;25.60;97.10
50907;DHT22;36882;27.680;85.304;2022-09-02T16:29:02;25.60;97.10
50907;DHT22;36882;27.680;85.304;2022-09-02T16:31:36;25.60;97.20
50907;DHT22;36882;27.680;85.304;2022-09-02T16:34:10;25.50;97.00
50907;DHT22;36882;27.680;85.304;2022-09-02T16:36:43;25.60;97.10
50907;DHT22;36882;27.680;85.304;2022-09-02T16:39:13;25.70;96.70
50907;DHT22;36882;27.680;85.304;2022-09-02T16:41:48;25.60;96.50
50907;DHT22;36882;27.680;85.304;2022-09-02T16:44:21;25.60;96.60
50907;DHT22;36882;27.680;85.304;2022-09-02T16:46:52;25.60;97.10
50907;DHT22;36882;27.680;85.304;2022-09-02T16:49:22;25.60;97.20
50907;DHT22;36882;27.680;85.304;2022-09-02T16:51:53;25.50;97.30
50907;DHT22;36882;27.680;85.304;2022-09-02T16:54:26;25.40;97.70
50907;DHT22;36882;27.680;85.304;2022-09-02T16:57:01;25.40;97.60
50907;DHT22;36882;27.680;85.304;2022-09-02T16:59:32;25.40;97.80
50907;DHT22;36882;27.680;85.304;2022-09-02T17:02:03;25.40;98.00
50907;DHT22;36882;27.680;85.304;2022-09-02T17:04:33;25.40;98.00
50907;DHT22;36882;27.680;85.304;2022-09-02T17:07:03;25.40;98.10
50907;DHT22;36882;27.680;85.304;2022-09-02T17:09:34;25.40;98.00
50907;DHT22;36882;27.680;85.304;2022-09-02T17:12:05;25.40;97.80
50907;DHT22;36882;27.680;85.304;2022-09-02T17:14:35;25.50;98.00
50907;DHT22;36882;27.680;85.304;2022-09-02T17:17:06;25.50;98.30
50907;DHT22;36882;27.680;85.304;2022-09-02T17:19:36;25.50;98.60
50907;DHT22;36882;27.680;85.304;2022-09-02T17:22:06;25.40;98.90
50907;DHT22;36882;27.680;85.304;2022-09-02T17:24:37;25.40;98.90
50907;DHT22;36882;27.680;85.304;2022-09-02T17:27:10;25.40;98.90
50907;DHT22;36882;27.680;85.304;2022-09-02T17:29:40;25.40;98.90
50907;DHT22;36882;27.680;85.304;2022-09-02T17:32:17;25.50;98.90
50907;DHT22;36882;27.680;85.304;2022-09-02T17:34:48;25.50;98.70
50907;DHT22;36882;27.680;85.304;2022-09-02T17:37:20;25.50;98.60
50907;DHT22;36882;27.680;85.304;2022-09-02T17:39:50;25.40;98.80
50907;DHT22;36882;27.680;85.304;2022-09-02T17:42:21;25.30;98.50
50907;DHT22;36882;27.680;85.304;2022-09-02T17:44:52;25.30;98.80
50907;DHT22;36882;27.680;85.304;2022-09-02T17:47:22;25.30;98.90
50907;DHT22;36882;27.680;85.304;2022-09-02T17:49:53;25.30;99.00
50907;DHT22;36882;27.680;85.304;2022-09-02T17:52:23;25.20;99.30
50907;DHT22;36882;27.680;85.304;2022-09-02T17:54:54;25.20;99.40
50907;DHT22;36882;27.680;85.304;2022-09-02T17:57:36;25.10;99.50
50907;DHT22;36882;27.680;85.304;2022-09-02T18:00:14;25.10;99.70
50907;DHT22;36882;27.680;85.304;2022-09-02T18:03:26;25.10;99.80
50907;DHT22;36882;27.680;85.304;2022-09-02T18:06:14;25.10;99.70
50907;DHT22;36882;27.680;85.304;2022-09-02T18:08:56;25.10;99.60
50907;DHT22;36882;27.680;85.304;2022-09-02T18:11:27;25.10;99.50
50907;DHT22;36882;27.680;85.304;2022-09-02T18:14:22;25.30;99.50
50907;DHT22;36882;27.680;85.304;2022-09-02T18:31:33;25.10;99.30
50907;DHT22;36882;27.680;85.304;2022-09-02T18:37:30;25.20;99.40
50907;DHT22;36882;27.680;85.304;2022-09-02T18:40:41;25.20;99.50
50907;DHT22;36882;27.680;85.304;2022-09-02T18:43:25;25.20;99.60
50907;DHT22;36882;27.680;85.304;2022-09-02T18:46:01;25.20;99.60
50907;DHT22;36882;27.680;85.304;2022-09-02T18:48:34;25.20;99.40
50907;DHT22;36882;27.680;85.304;2022-09-02T18:51:28;25.20;99.40
50907;DHT22;36882;27.680;85.304;2022-09-02T18:54:24;25.10;99.40
50907;DHT22;36882;27.680;85.304;2022-09-02T18:56:58;25.20;99.40
50907;DHT22;36882;27.680;85.304;2022-09-02T18:59:51;25.20;99.60
50907;DHT22;36882;27.680;85.304;2022-09-02T19:05:20;25.20;99.50
50907;DHT22;36882;27.680;85.304;2022-09-02T19:08:00;25.20;99.50
50907;DHT22;36882;27.680;85.304;2022-09-02T19:10:44;25.20;99.40
50907;DHT22;36882;27.680;85.304;2022-09-02T19:13:15;25.30;99.30
50907;DHT22;36882;27.680;85.304;2022-09-02T19:15:46;25.20;99.30
50907;DHT22;36882;27.680;85.304;2022-09-02T19:18:22;25.20;99.40
50907;DHT22;36882;27.680;85.304;2022-09-02T19:20:54;25.20;99.50
50907;DHT22;36882;27.680;85.304;2022-09-02T19:23:26;25.20;99.40
50907;DHT22;36882;27.680;85.304;2022-09-02T19:25:57;25.10;99.50
50907;DHT22;36882;27.680;85.304;2022-09-02T19:28:28;25.10;99.40
50907;DHT22;36882;27.680;85.304;2022-09-02T19:31:02;25.10;99.50
50907;DHT22;36882;27.680;85.304;2022-09-02T19:33:37;25.10;99.50
50907;DHT22;36882;27.680;85.304;2022-09-02T19:36:08;25.10;99.50
50907;DHT22;36882;27.680;85.304;2022-09-02T19:38:38;25.20;99.20
50907;DHT22;36882;27.680;85.304;2022-09-02T19:41:09;25.10;99.20
50907;DHT22;36882;27.680;85.304;2022-09-02T19:43:39;25.10;99.50
50907;DHT22;36882;27.680;85.304;2022-09-02T19:46:10;25.10;99.50
50907;DHT22;36882;27.680;85.304;2022-09-02T19:49:00;25.10;99.50
50907;DHT22;36882;27.680;85.304;2022-09-02T19:51:31;25.00;99.70
50907;DHT22;36882;27.680;85.304;2022-09-02T19:54:01;25.00;99.10
50907;DHT22;36882;27.680;85.304;2022-09-02T19:56:31;25.10;99.40
50907;DHT22;36882;27.680;85.304;2022-09-02T19:59:02;25.10;99.40
50907;DHT22;36882;27.680;85.304;2022-09-02T20:01:34;25.10;99.30
50907;DHT22;36882;27.680;85.304;2022-09-02T20:04:05;25.10;99.50
50907;DHT22;36882;27.680;85.304;2022-09-02T20:06:35;25.00;99.60
50907;DHT22;36882;27.680;85.304;2022-09-02T20:09:06;25.10;99.80
50907;DHT22;36882;27.680;85.304;2022-09-02T20:11:39;25.10;99.90
50907;DHT22;36882;27.680;85.304;2022-09-02T20:14:10;25.00;99.80
50907;DHT22;36882;27.680;85.304;2022-09-02T20:16:40;25.00;99.80
50907;DHT22;36882;27.680;85.304;2022-09-02T20:19:11;25.00;99.90
50907;DHT22;36882;27.680;85.304;2022-09-02T20:21:44;25.00;99.90
50907;DHT22;36882;27.680;85.304;2022-09-02T20:24:23;25.00;99.80
50907;DHT22;36882;27.680;85.304;2022-09-02T20:30:12;25.10;99.70
50907;DHT22;36882;27.680;85.304;2022-09-02T20:32:59;25.00;99.60
50907;DHT22;36882;27.680;85.304;2022-09-02T20:35:50;25.00;99.60
50907;DHT22;36882;27.680;85.304;2022-09-02T20:38:56;25.00;99.80
50907;DHT22;36882;27.680;85.304;2022-09-02T20:44:58;25.00;99.80
50907;DHT22;36882;27.680;85.304;2022-09-02T20:47:42;25.10;99.90
50907;DHT22;36882;27.680;85.304;2022-09-02T20:50:36;25.00;99.70
50907;DHT22;36882;27.680;85.304;2022-09-02T20:53:50;25.00;99.50
50907;DHT22;36882;27.680;85.304;2022-09-02T20:56:23;25.00;99.60
50907;DHT22;36882;27.680;85.304;2022-09-02T20:59:12;25.10;99.60
50907;DHT22;36882;27.680;85.304;2022-09-02T21:01:44;25.10;99.70
50907;DHT22;36882;27.680;85.304;2022-09-02T21:04:29;25.10;99.90
50907;DHT22;36882;27.680;85.304;2022-09-02T21:07:16;25.10;99.90
50907;DHT22;36882;27.680;85.304;2022-09-02T21:10:12;25.00;99.90
50907;DHT22;36882;27.680;85.304;2022-09-02T21:12:57;24.90;99.90
50907;DHT22;36882;27.680;85.304;2022-09-02T21:15:50;24.90;99.90
50907;DHT22;36882;27.680;85.304;2022-09-02T21:18:46;24.70;99.90
50907;DHT22;36882;27.680;85.304;2022-09-02T21:24:21;24.70;99.90
50907;DHT22;36882;27.680;85.304;2022-09-02T21:27:10;24.60;99.90
50907;DHT22;36882;27.680;85.304;2022-09-02T21:29:54;24.60;99.90
50907;DHT22;36882;27.680;85.304;2022-09-02T21:32:41;24.60;99.90
50907;DHT22;36882;27.680;85.304;2022-09-02T21:35:28;24.60;99.90
50907;DHT22;36882;27.680;85.304;2022-09-02T21:38:03;24.60;99.90
50907;DHT22;36882;27.680;85.304;2022-09-02T21:52:48;24.30;99.90
50907;DHT22;36882;27.680;85.304;2022-09-02T21:58:41;24.20;99.90
50907;DHT22;36882;27.680;85.304;2022-09-02T22:01:29;24.30;99.90
50907;DHT22;36882;27.680;85.304;2022-09-02T22:04:29;24.40;99.90
50907;DHT22;36882;27.680;85.304;2022-09-02T22:07:14;24.40;99.90
50907;DHT22;36882;27.680;85.304;2022-09-02T22:12:36;24.20;99.90
50907;DHT22;36882;27.680;85.304;2022-09-02T22:15:21;24.10;99.90
50907;DHT22;36882;27.680;85.304;2022-09-02T22:18:11;24.20;99.90
50907;DHT22;36882;27.680;85.304;2022-09-02T22:20:46;24.20;99.90
50907;DHT22;36882;27.680;85.304;2022-09-02T22:23:24;24.10;99.90
50907;DHT22;36882;27.680;85.304;2022-09-02T22:25:58;24.20;99.90
50907;DHT22;36882;27.680;85.304;2022-09-02T22:28:38;24.20;99.90
50907;DHT22;36882;27.680;85.304;2022-09-02T22:31:14;24.10;99.90